createdAt,value
2022-08-28T00:02:33.956Z,69.53
2022-08-28T00:07:36.625Z,68.83
2022-08-28T00:12:40.393Z,68.21
2022-08-28T00:17:43.485Z,67.25
2022-08-28T00:22:46.982Z,66.35
2022-08-28T00:27:55.144Z,65.87
2022-08-28T00:33:06.467Z,65.41
2022-08-28T00:38:09.801Z,65.48
2022-08-28T00:43:25.961Z,65.66
2022-08-28T00:48:28.771Z,65.56
2022-08-28T00:53:32.952Z,65.79
2022-08-28T00:58:36.251Z,66.16
2022-08-28T01:03:39.679Z,66.35
2022-08-28T01:08:45.674Z,66.85
2022-08-28T01:13:54.659Z,67.16
2022-08-28T01:18:58.150Z,67.34
2022-08-28T01:24:08.132Z,67.43
2022-08-28T01:29:12.014Z,67.32
2022-08-28T01:34:15.072Z,67.49
2022-08-28T01:39:20.360Z,67.52
2022-08-28T01:44:25.862Z,67.74
2022-08-28T01:49:29.537Z,68.36
2022-08-28T01:54:32.154Z,69.62
2022-08-28T01:59:34.850Z,70.66
2022-08-28T02:04:38.828Z,70.76
2022-08-28T02:09:41.468Z,70.71
2022-08-28T02:14:44.141Z,70.51
2022-08-28T02:19:46.775Z,70.38
2022-08-28T02:24:49.497Z,69.11
2022-08-28T02:29:53.320Z,68.15
2022-08-28T02:34:56.698Z,67.00
2022-08-28T02:39:59.962Z,66.15
2022-08-28T02:45:02.955Z,66.45
2022-08-28T02:50:07.562Z,66.63
2022-08-28T02:55:11.578Z,66.52
2022-08-28T03:00:16.418Z,66.41
2022-08-28T03:05:21.162Z,66.67
2022-08-28T03:10:24.114Z,66.88
2022-08-28T03:15:26.813Z,67.42
2022-08-28T03:20:29.411Z,67.52
2022-08-28T03:25:32.069Z,67.69
2022-08-28T03:30:34.761Z,68.21
2022-08-28T03:35:37.895Z,68.60
2022-08-28T03:40:42.690Z,69.06
2022-08-28T03:46:03.759Z,69.28
2022-08-28T03:51:08.135Z,69.48
2022-08-28T03:56:12.546Z,69.41
2022-08-28T04:01:15.185Z,69.22
2022-08-28T04:06:18.464Z,68.88
2022-08-28T04:11:21.055Z,68.84
2022-08-28T04:16:24.694Z,68.53
2022-08-28T04:21:28.532Z,67.96
2022-08-28T04:26:36.530Z,68.07
2022-08-28T04:31:40.163Z,68.08
2022-08-28T04:36:43.311Z,67.75
2022-08-28T04:41:46.407Z,67.14
2022-08-28T04:46:48.984Z,66.10
2022-08-28T04:51:52.232Z,65.59
2022-08-28T04:56:54.931Z,65.43
2022-08-28T05:01:57.564Z,65.08
2022-08-28T05:07:00.192Z,63.89
2022-08-28T05:12:04.157Z,61.53
2022-08-28T05:17:06.859Z,59.58
2022-08-28T05:22:10.488Z,57.29
2022-08-28T05:27:13.137Z,55.10
2022-08-28T05:32:16.080Z,53.15
2022-08-28T05:37:19.783Z,51.57
2022-08-28T05:42:22.533Z,49.82
2022-08-28T05:47:25.333Z,47.94
2022-08-28T05:52:28.845Z,46.67
2022-08-28T05:57:31.521Z,45.45
2022-08-28T06:02:36.784Z,43.45
2022-08-28T06:07:39.976Z,42.08
2022-08-28T06:12:42.573Z,40.79
2022-08-28T06:17:45.430Z,39.17
2022-08-28T06:22:50.120Z,37.80
2022-08-28T06:27:52.713Z,36.98
2022-08-28T06:32:55.333Z,36.49
2022-08-28T06:37:59.020Z,35.20
2022-08-28T06:43:02.015Z,34.42
2022-08-28T06:48:04.710Z,32.96
2022-08-28T06:53:09.290Z,31.89
2022-08-28T06:58:13.046Z,30.88
2022-08-28T07:03:15.902Z,30.33
2022-08-28T07:08:20.482Z,28.82
2022-08-28T07:13:23.384Z,27.58
2022-08-28T07:18:26.048Z,26.49
2022-08-28T07:23:29.434Z,24.89
2022-08-28T07:28:32.355Z,23.74
2022-08-28T07:33:35.175Z,23.42
2022-08-28T07:38:38.421Z,22.83
2022-08-28T07:44:00.013Z,22.04
2022-08-28T07:49:02.745Z,21.15
2022-08-28T07:54:06.176Z,20.27
2022-08-28T07:59:11.752Z,19.61
2022-08-28T08:04:17.567Z,19.04
2022-08-28T08:09:20.580Z,18.40
2022-08-28T08:14:25.252Z,18.63
2022-08-28T08:19:27.913Z,19.06
2022-08-28T08:24:30.536Z,18.47
2022-08-28T08:29:35.906Z,17.90
2022-08-28T08:34:41.304Z,17.12
2022-08-28T08:39:43.986Z,16.86
2022-08-28T08:44:47.763Z,16.99
2022-08-28T08:50:10.594Z,16.01
2022-08-28T08:55:27.447Z,15.85
2022-08-28T09:00:37.715Z,15.25
2022-08-28T09:05:50.168Z,15.01
2022-08-28T09:11:01.056Z,14.30
2022-08-28T09:16:05.156Z,13.70
2022-08-28T09:21:07.878Z,13.77
2022-08-28T09:26:21.387Z,13.76
2022-08-28T09:31:32.329Z,13.11
2022-08-28T09:36:36.857Z,12.59
2022-08-28T09:42:01.226Z,12.44
2022-08-28T09:47:03.829Z,11.85
2022-08-28T09:52:23.046Z,11.37
2022-08-28T09:57:27.968Z,11.46
2022-08-28T10:02:41.391Z,11.26
2022-08-28T10:07:47.269Z,10.84
2022-08-28T10:12:50.506Z,10.47
2022-08-28T10:18:09.121Z,10.26
2022-08-28T10:23:24.905Z,10.74
2022-08-28T10:28:33.731Z,10.50
2022-08-28T10:33:54.798Z,10.03
2022-08-28T10:39:03.445Z,9.66
2022-08-28T10:44:07.787Z,9.16
2022-08-28T10:49:22.330Z,9.11
2022-08-28T10:54:30.509Z,9.00
2022-08-28T10:59:41.831Z,9.16
2022-08-28T11:04:47.140Z,9.04
2022-08-28T11:09:50.215Z,8.95
2022-08-28T11:14:52.773Z,8.93
2022-08-28T11:20:01.489Z,8.85
2022-08-28T11:25:33.938Z,8.88
2022-08-28T11:30:38.828Z,9.02
2022-08-28T11:35:43.754Z,9.05
2022-08-28T11:40:51.134Z,8.84
2022-08-28T11:45:55.138Z,8.64
2022-08-28T11:51:02.391Z,8.22
2022-08-28T11:56:16.044Z,8.12
2022-08-28T12:01:37.675Z,8.46
2022-08-28T12:06:40.735Z,8.66
2022-08-28T12:11:43.692Z,8.39
2022-08-28T12:16:58.604Z,8.49
2022-08-28T12:22:09.971Z,9.25
2022-08-28T12:27:13.825Z,9.54
2022-08-28T12:32:35.209Z,9.91
2022-08-28T12:38:09.373Z,10.48
2022-08-28T12:43:15.377Z,10.45
2022-08-28T12:48:25.148Z,11.73
2022-08-28T12:53:27.889Z,13.39
2022-08-28T12:58:34.115Z,14.43
2022-08-28T13:03:48.029Z,14.53
2022-08-28T13:08:53.922Z,15.37
2022-08-28T13:13:56.736Z,16.76
2022-08-28T13:19:05.577Z,17.32
2022-08-28T13:24:27.565Z,18.27
2022-08-28T13:29:31.069Z,19.71
2022-08-28T13:34:34.964Z,20.11
2022-08-28T13:39:37.921Z,17.60
2022-08-28T13:44:53.330Z,17.48
2022-08-28T13:49:56.018Z,18.41
2022-08-28T13:54:58.806Z,18.96
2022-08-28T14:00:02.342Z,19.75
2022-08-28T14:05:05.953Z,20.42
2022-08-28T14:10:12.164Z,20.83
2022-08-28T14:15:16.461Z,21.72
2022-08-28T14:20:19.977Z,21.68
2022-08-28T14:25:22.619Z,21.83
2022-08-28T14:30:26.345Z,21.94
2022-08-28T14:35:28.918Z,22.30
2022-08-28T14:40:31.683Z,23.68
2022-08-28T14:45:41.293Z,26.45
2022-08-28T14:50:48.224Z,26.22
2022-08-28T14:55:50.906Z,26.03
2022-08-28T15:00:53.555Z,25.68
2022-08-28T15:06:00.176Z,25.31
2022-08-28T15:11:18.415Z,24.67
2022-08-28T15:16:29.894Z,24.56
2022-08-28T15:21:34.926Z,24.09
2022-08-28T15:26:40.171Z,23.99
2022-08-28T15:31:45.596Z,24.42
2022-08-28T15:36:55.301Z,25.08
2022-08-28T15:41:59.645Z,25.42
2022-08-28T15:47:03.215Z,26.24
2022-08-28T15:52:06.729Z,27.17
2022-08-28T15:57:10.083Z,28.04
2022-08-28T16:02:12.819Z,29.13
2022-08-28T16:07:15.841Z,32.61
2022-08-28T16:12:18.468Z,37.80
2022-08-28T16:17:21.510Z,42.08
2022-08-28T16:22:24.524Z,45.49
2022-08-28T16:27:27.296Z,47.42
2022-08-28T16:32:31.455Z,50.50
2022-08-28T16:37:39.717Z,54.99
2022-08-28T16:42:51.463Z,58.27
2022-08-28T16:47:54.861Z,60.70
2022-08-28T16:53:02.456Z,62.61
2022-08-28T16:58:07.628Z,65.99
2022-08-28T17:03:10.975Z,68.02
2022-08-28T17:08:13.893Z,69.26
2022-08-28T17:13:16.795Z,71.81
2022-08-28T17:18:19.392Z,71.80
2022-08-28T17:23:22.019Z,73.33
2022-08-28T17:28:24.688Z,74.57
2022-08-28T17:33:27.666Z,77.15
2022-08-28T17:38:30.364Z,77.59
2022-08-28T17:43:33.373Z,78.63
2022-08-28T17:48:37.093Z,78.91
2022-08-28T17:53:40.213Z,78.32
2022-08-28T17:58:42.842Z,78.85
2022-08-28T18:03:53.468Z,79.54
2022-08-28T18:08:56.622Z,81.15
2022-08-28T18:14:02.344Z,80.84
2022-08-28T18:19:06.537Z,80.57
2022-08-28T18:24:13.008Z,80.82
2022-08-28T18:29:15.821Z,81.57
2022-08-28T18:34:18.514Z,81.96
2022-08-28T18:39:29.535Z,81.84
2022-08-28T18:44:32.876Z,82.03
2022-08-28T18:49:35.469Z,82.78
2022-08-28T18:54:38.533Z,82.77
2022-08-28T18:59:41.131Z,82.81
2022-08-28T19:04:44.852Z,82.97
2022-08-28T19:09:47.481Z,82.94
2022-08-28T19:14:53.284Z,82.55
2022-08-28T19:19:55.930Z,83.01
2022-08-28T19:24:58.889Z,82.77
2022-08-28T19:30:04.216Z,82.63
2022-08-28T19:35:07.454Z,82.41
2022-08-28T19:40:10.877Z,82.31
2022-08-28T19:45:14.954Z,82.22
2022-08-28T19:50:18.366Z,82.55
2022-08-28T19:55:25.859Z,82.42
2022-08-28T20:00:33.146Z,82.21
2022-08-28T20:05:38.190Z,82.11
2022-08-28T20:10:42.566Z,82.39
2022-08-28T20:15:46.808Z,82.12
2022-08-28T20:20:51.401Z,81.86
2022-08-28T20:25:54.594Z,81.98
2022-08-28T20:30:57.463Z,81.70
2022-08-28T20:36:04.725Z,81.46
2022-08-28T20:41:09.633Z,81.26
2022-08-28T20:46:13.885Z,81.39
2022-08-28T20:51:16.694Z,81.38
2022-08-28T20:56:19.512Z,81.25
2022-08-28T21:01:22.751Z,81.19
2022-08-28T21:06:25.443Z,81.35
2022-08-28T21:11:29.540Z,81.83
2022-08-28T21:16:34.169Z,81.76
2022-08-28T21:21:37.600Z,82.50
2022-08-28T21:26:50.671Z,83.25
2022-08-28T21:31:54.640Z,83.24
2022-08-28T21:36:58.008Z,84.54
2022-08-28T21:42:00.738Z,85.79
2022-08-28T21:47:03.489Z,86.69
2022-08-28T21:52:06.368Z,88.14
2022-08-28T21:57:08.962Z,89.07
2022-08-28T22:02:11.617Z,91.48
2022-08-28T22:07:14.356Z,92.81
2022-08-28T22:12:16.979Z,93.10
2022-08-28T22:17:19.569Z,93.86
2022-08-28T22:22:41.749Z,94.25
2022-08-28T22:27:44.523Z,93.90
2022-08-28T22:32:47.178Z,94.16
2022-08-28T22:37:49.878Z,95.56
2022-08-28T22:42:52.834Z,96.78
2022-08-28T22:47:55.449Z,97.40
2022-08-28T22:52:58.111Z,98.86
2022-08-28T22:58:01.006Z,99.40
2022-08-28T23:03:04.329Z,99.73
2022-08-28T23:08:06.988Z,99.92
2022-08-28T23:13:09.640Z,99.80
2022-08-28T23:18:17.072Z,99.89
2022-08-28T23:23:20.261Z,99.69
2022-08-28T23:28:23.505Z,99.80
2022-08-28T23:33:26.101Z,100.00
2022-08-28T23:38:28.674Z,99.87
2022-08-28T23:43:31.578Z,99.97
2022-08-28T23:48:35.684Z,99.83
2022-08-28T23:53:38.877Z,99.38
2022-08-28T23:58:43.270Z,98.77
